Time;durP1;ratioP1;P1;durP2;ratioP2;P2;SDS_P1;SDS_P2;PMS_P1;PMS_P2;Temp;Humidity;BMP_temperature;BMP_pressure;BME280_temperature;BME280_humidity;BME280_pressure;Samples;Min_cycle;Max_cycle;Signal;HPM_P1;HPM_P2
2022/06/09 00:01:14;;;;;;;26.80;2.55;;;;;;;23.70;50.33;98541.00;7314341;19;129770;-40
2022/06/09 00:03:44;;;;;;;22.52;2.30;;;;;;;23.80;52.18;98523.19;7315572;19;129980;-40
2022/06/09 00:06:11;;;;;;;27.02;2.67;;;;;;;23.96;51.34;98535.34;7311220;19;131239;-41
2022/06/09 00:08:40;;;;;;;22.75;2.53;;;;;;;24.03;52.06;98533.69;7314924;19;129906;-40
2022/06/09 00:11:07;;;;;;;33.95;2.95;;;;;;;23.98;51.39;98520.28;7312862;19;129125;-40
2022/06/09 00:13:34;;;;;;;;;;;;;;;24.17;53.55;98546.81;7315149;19;129842;-41
2022/06/09 00:16:00;;;;;;;38.67;3.65;;;;;;;24.13;51.46;98542.09;7313902;19;130320;-39
2022/06/09 00:18:26;;;;;;;25.15;2.55;;;;;;;24.14;52.67;98547.16;7314363;19;130490;-39
2022/06/09 00:20:51;;;;;;;24.23;2.47;;;;;;;24.16;51.94;98552.22;7313151;19;129146;-40
2022/06/09 00:23:17;;;;;;;33.30;3.43;;;;;;;24.17;52.23;98559.94;7313560;19;129406;-39
2022/06/09 00:25:43;;;;;;;29.77;2.80;;;;;;;24.18;51.87;98551.03;7313526;19;129198;-39
2022/06/09 00:28:09;;;;;;;27.47;2.67;;;;;;;24.19;52.97;98555.31;7314517;19;129214;-40
2022/06/09 00:30:34;;;;;;;38.03;3.63;;;;;;;24.20;52.48;98562.19;7312570;19;129118;-40
2022/06/09 00:33:00;;;;;;;29.90;2.90;;;;;;;24.18;52.31;98561.56;7309497;19;129163;-40
2022/06/09 00:35:25;;;;;;;41.35;3.85;;;;;;;24.05;51.50;98565.78;7313450;19;129829;-40
2022/06/09 00:37:51;;;;;;;19.15;1.85;;;;;;;23.72;50.04;98564.44;7314431;19;129224;-39
2022/06/09 00:40:17;;;;;;;37.30;3.47;;;;;;;23.61;49.46;98557.00;7313933;19;129980;-39
2022/06/09 00:42:42;;;;;;;16.63;2.13;;;;;;;23.71;49.37;98578.56;7312278;19;130881;-40
2022/06/09 00:45:34;;;;;;;33.97;3.23;;;;;;;23.90;51.78;98571.00;7314125;19;130468;-40
2022/06/09 00:48:03;;;;;;;45.08;3.63;;;;;;;23.97;52.65;98574.56;7310791;19;130438;-41
2022/06/09 00:50:30;;;;;;;20.55;2.10;;;;;;;24.02;51.56;98577.47;7312071;19;128773;-39
2022/06/09 00:53:00;;;;;;;15.20;1.50;;;;;;;24.06;52.35;98572.69;7310700;19;128860;-40
2022/06/09 00:55:30;;;;;;;30.55;2.72;;;;;;;24.05;51.59;98566.63;7314389;19;132015;-40
2022/06/09 00:58:02;;;;;;;21.13;2.22;;;;;;;24.12;52.69;98575.41;7313096;19;131884;-40
2022/06/09 01:00:39;;;;;;;25.08;2.55;;;;;;;24.13;53.99;98584.91;7311597;19;129843;-41
2022/06/09 01:03:06;;;;;;;29.17;2.67;;;;;;;24.16;52.74;98584.53;7311910;19;129333;-40
2022/06/09 01:05:32;;;;;;;26.15;2.65;;;;;;;24.09;52.26;98562.66;7312903;19;130289;-40
2022/06/09 01:08:01;;;;;;;17.97;1.90;;;;;;;24.21;52.50;98587.44;7314437;19;129321;-39
2022/06/09 01:10:29;;;;;;;27.42;2.45;;;;;;;24.21;52.47;98589.28;7312478;19;129157;-40
2022/06/09 01:12:56;;;;;;;24.17;2.47;;;;;;;24.17;52.52;98595.88;7310195;19;129471;-41
2022/06/09 01:15:24;;;;;;;25.98;2.28;;;;;;;24.18;52.71;98598.31;7313017;19;130525;-39
2022/06/09 01:18:10;;;;;;;20.67;2.00;;;;;;;23.80;49.81;98596.69;7312426;19;129235;-39
2022/06/09 01:21:05;;;;;;;27.95;2.67;;;;;;;23.70;49.11;98597.94;7311223;19;129038;-40
2022/06/09 01:23:44;;;;;;;27.10;2.65;;;;;;;23.69;49.05;98602.38;7313403;19;129140;-41
2022/06/09 01:26:47;;;;;;;31.00;2.85;;;;;;;23.90;52.06;98605.13;7312883;19;129274;-39
2022/06/09 01:29:21;;;;;;;46.75;4.00;;;;;;;23.99;52.15;98609.34;7308606;19;130892;-40
2022/06/09 01:31:59;;;;;;;25.25;2.53;;;;;;;24.04;52.91;98596.50;7310137;19;129364;-40
2022/06/09 01:34:39;;;;;;;34.63;2.97;;;;;;;24.09;51.05;98599.41;7312429;19;131001;-39
2022/06/09 01:37:12;;;;;;;28.55;2.67;;;;;;;24.12;52.16;98593.78;7311740;19;130392;-39
2022/06/09 01:39:46;;;;;;;32.30;3.10;;;;;;;24.13;53.76;98594.63;7312484;19;129591;-40
2022/06/09 01:42:21;;;;;;;38.83;3.60;;;;;;;24.06;53.21;98576.16;7310832;19;130107;-40
2022/06/09 01:44:46;;;;;;;37.80;3.20;;;;;;;24.16;52.43;98592.41;7309391;19;129732;-40
2022/06/09 01:47:15;;;;;;;36.78;3.35;;;;;;;24.17;52.02;98580.13;7310838;19;130217;-40
2022/06/09 01:49:41;;;;;;;35.13;3.28;;;;;;;24.18;52.59;98585.19;7309672;19;130424;-40
2022/06/09 01:52:07;;;;;;;41.37;3.53;;;;;;;24.19;52.35;98588.63;7309833;19;129926;-39
2022/06/09 01:54:36;;;;;;;27.73;2.53;;;;;;;24.20;53.15;98603.38;7311611;19;130216;-40
2022/06/09 01:57:26;;;;;;;25.98;2.58;;;;;;;24.22;54.51;98598.78;7310665;19;129125;-39
2022/06/09 01:59:57;;;;;;;32.15;3.03;;;;;;;23.87;50.36;98602.03;7309349;19;130535;-41
2022/06/09 02:02:34;;;;;;;30.50;2.75;;;;;;;23.71;49.24;98610.91;7310716;19;128724;-39
2022/06/09 02:05:09;;;;;;;28.67;2.63;;;;;;;23.72;48.98;98612.50;7310657;19;129282;-40
2022/06/09 02:07:37;;;;;;;34.97;3.17;;;;;;;23.72;49.96;98617.75;7310668;19;129566;-39
2022/06/09 02:10:18;;;;;;;51.25;4.53;;;;;;;23.97;52.07;98616.56;7307917;19;129283;-40
2022/06/09 02:12:46;;;;;;;30.75;3.10;;;;;;;24.03;51.08;98620.31;7308241;19;129729;-40
2022/06/09 02:15:20;;;;;;;29.23;2.65;;;;;;;24.05;52.34;98619.13;7311123;19;129500;-39
2022/06/09 02:17:48;;;;;;;36.53;3.25;;;;;;;24.09;51.66;98625.69;7311925;19;130471;-39
2022/06/09 02:20:17;;;;;;;58.47;4.72;;;;;;;24.12;52.52;98627.09;7307549;19;130496;-40
2022/06/09 02:22:43;;;;;;;37.65;3.45;;;;;;;24.15;51.78;98630.19;7308431;19;129417;-40
2022/06/09 02:25:09;;;;;;;44.90;3.67;;;;;;;24.18;51.76;98634.28;7309502;19;130562;-41
2022/06/09 02:27:35;;;;;;;26.17;2.53;;;;;;;24.20;52.75;98638.34;7310833;19;129560;-40
2022/06/09 02:30:00;;;;;;;29.37;2.67;;;;;;;24.19;53.13;98642.00;7310558;19;130106;-40
2022/06/09 02:32:26;;;;;;;21.20;2.07;;;;;;;24.20;52.88;98643.63;7307413;19;129466;-39
2022/06/09 02:34:51;;;;;;;19.67;1.93;;;;;;;24.22;52.01;98646.88;7311527;19;129381;-40
2022/06/09 02:37:17;;;;;;;28.80;2.47;;;;;;;24.22;52.04;98648.69;7310982;19;129302;-39
2022/06/09 02:39:42;;;;;;;50.83;4.43;;;;;;;24.21;52.54;98652.31;7310303;19;129170;-39
2022/06/09 02:42:10;;;;;;;39.53;3.30;;;;;;;23.75;49.71;98648.91;7305207;19;129907;-39
2022/06/09 02:44:36;;;;;;;33.67;3.10;;;;;;;23.72;49.87;98651.88;7309750;19;128960;-40
2022/06/09 02:47:01;;;;;;;28.98;2.42;;;;;;;23.72;48.77;98648.44;7310319;19;130234;-39
2022/06/09 02:49:26;;;;;;;23.33;2.00;;;;;;;23.83;50.35;98656.69;7310013;19;129699;-40
2022/06/09 02:51:54;;;;;;;24.13;2.23;;;;;;;23.95;51.36;98659.72;7308792;19;128910;-39
2022/06/09 02:54:20;;;;;;;35.92;3.05;;;;;;;24.01;51.88;98670.41;7309794;19;129110;-39
2022/06/09 02:56:46;;;;;;;21.60;2.13;;;;;;;24.06;51.74;98672.47;7309826;19;131204;-40
2022/06/09 02:59:12;;;;;;;33.93;3.03;;;;;;;24.11;51.92;98678.81;7314738;19;130233;-41
2022/06/09 03:01:38;;;;;;;22.43;2.43;;;;;;;24.14;52.35;98685.53;7313799;19;130184;-41
2022/06/09 03:04:05;;;;;;;12.53;1.60;;;;;;;24.15;52.73;98695.84;7316814;19;129018;-39
2022/06/09 03:06:30;;;;;;;24.92;2.22;;;;;;;24.16;52.56;98681.72;7314570;19;130205;-40
2022/06/09 03:08:56;;;;;;;34.40;3.07;;;;;;;24.18;52.66;98682.38;7316468;19;130347;-39
2022/06/09 03:11:21;;;;;;;14.07;1.50;;;;;;;24.18;52.59;98687.63;7316914;19;129110;-39
2022/06/09 03:13:47;;;;;;;32.40;2.67;;;;;;;24.20;52.26;98696.16;7316121;19;129188;-39
2022/06/09 03:16:14;;;;;;;29.10;2.42;;;;;;;24.23;52.38;98695.78;7317129;19;129351;-39
2022/06/09 03:18:39;;;;;;;33.42;2.80;;;;;;;24.20;52.39;98695.31;7315841;19;129444;-39
2022/06/09 03:21:05;;;;;;;26.83;2.47;;;;;;;24.21;52.63;98700.38;7317088;19;129073;-39
2022/06/09 03:23:31;;;;;;;42.78;3.53;;;;;;;24.22;52.56;98694.16;7315380;19;128830;-39
2022/06/09 03:25:57;;;;;;;20.90;1.88;;;;;;;23.72;50.14;98690.41;7315590;19;130278;-40
2022/06/09 03:28:23;;;;;;;34.33;2.87;;;;;;;23.72;49.41;98696.50;7315358;19;129861;-39
2022/06/09 03:30:48;;;;;;;20.48;1.80;;;;;;;23.75;49.47;98687.47;7316453;19;128957;-39
2022/06/09 03:33:14;;;;;;;47.88;3.55;;;;;;;23.89;50.21;98684.91;7315370;19;129881;-39
2022/06/09 03:35:39;;;;;;;47.22;4.07;;;;;;;24.01;51.77;98680.06;7314855;19;130994;-42
2022/06/09 03:38:05;;;;;;;28.35;2.38;;;;;;;24.05;51.46;98676.91;7315500;19;130558;-39
2022/06/09 03:40:31;;;;;;;27.65;2.50;;;;;;;24.06;52.12;98675.94;7313696;19;129030;-39
2022/06/09 03:42:57;;;;;;;28.45;2.53;;;;;;;24.14;51.82;98669.78;7313268;19;128982;-40
2022/06/09 03:45:23;;;;;;;39.25;3.17;;;;;;;24.17;52.51;98678.13;7312511;19;130548;-39
2022/06/09 03:47:49;;;;;;;22.40;2.10;;;;;;;24.19;52.15;98678.75;7313795;19;129236;-39
2022/06/09 03:50:18;;;;;;;21.75;1.95;;;;;;;24.20;52.02;98677.75;7316564;19;129078;-40
2022/06/09 03:52:43;;;;;;;33.25;2.88;;;;;;;24.20;51.95;98679.56;7311903;19;130295;-41
2022/06/09 03:55:09;;;;;;;26.80;2.47;;;;;;;24.23;52.22;98685.28;7315964;19;129172;-41
2022/06/09 03:57:34;;;;;;;69.47;5.70;;;;;;;24.24;52.12;98700.06;7314895;19;130701;-42
2022/06/09 04:00:00;;;;;;;19.10;1.70;;;;;;;24.26;52.29;98699.88;7315524;19;130410;-41
2022/06/09 04:02:25;;;;;;;27.07;2.30;;;;;;;24.25;51.97;98704.31;7312792;19;129851;-41
2022/06/09 04:04:52;;;;;;;21.40;1.80;;;;;;;24.28;51.94;98703.94;7314588;19;130379;-41
2022/06/09 04:07:18;;;;;;;40.15;3.35;;;;;;;23.76;50.22;98703.03;7311892;19;130763;-42
2022/06/09 04:09:44;;;;;;;36.30;2.97;;;;;;;23.71;49.89;98705.38;7312251;19;129397;-41
2022/06/09 04:12:09;;;;;;;41.22;3.45;;;;;;;23.73;49.00;98716.53;7314385;19;129599;-43
2022/06/09 04:14:35;;;;;;;42.58;3.70;;;;;;;23.92;49.92;98702.91;7314977;19;130606;-41
2022/06/09 04:17:00;;;;;;;27.05;2.15;;;;;;;24.01;51.15;98712.41;7313093;19;131216;-41
2022/06/09 04:19:26;;;;;;;27.30;2.77;;;;;;;24.03;50.95;98710.41;7308058;19;129273;-39
2022/06/09 04:21:51;;;;;;;22.67;1.93;;;;;;;24.10;51.79;98718.38;7312368;19;128999;-41
2022/06/09 04:24:17;;;;;;;47.00;3.83;;;;;;;24.12;51.17;98714.59;7312037;19;129102;-40
2022/06/09 04:26:43;;;;;;;28.73;2.50;;;;;;;24.19;51.83;98715.53;7311708;19;129542;-41
2022/06/09 04:29:11;;;;;;;29.83;2.63;;;;;;;24.15;52.12;98703.72;7314072;19;129039;-41
2022/06/09 04:31:37;;;;;;;32.17;2.67;;;;;;;24.22;52.31;98698.59;7308755;19;130257;-41
2022/06/09 04:34:03;;;;;;;35.07;3.10;;;;;;;24.14;52.62;98691.63;7312797;19;129158;-40
2022/06/09 04:36:29;;;;;;;42.60;3.35;;;;;;;24.23;52.53;98711.53;7310834;19;130204;-42
2022/06/09 04:38:54;;;;;;;21.27;1.97;;;;;;;24.23;52.15;98716.78;7314406;19;129132;-42
2022/06/09 04:41:19;;;;;;;29.40;2.50;;;;;;;24.25;52.09;98712.19;7312740;19;130557;-41
2022/06/09 04:43:47;;;;;;;38.63;3.05;;;;;;;24.23;52.71;98716.78;7311300;19;129646;-42
2022/06/09 04:46:15;;;;;;;24.55;2.33;;;;;;;24.18;52.33;98702.59;7314297;19;129970;-41
2022/06/09 04:48:41;;;;;;;34.15;2.90;;;;;;;23.72;49.66;98712.25;7310388;19;128963;-40
2022/06/09 04:51:08;;;;;;;31.13;2.55;;;;;;;23.73;49.55;98729.66;7312811;19;129096;-40
2022/06/09 04:53:34;;;;;;;45.20;3.63;;;;;;;23.76;48.97;98737.16;7310623;19;129624;-43
2022/06/09 04:55:59;;;;;;;32.80;2.67;;;;;;;23.93;50.36;98732.63;7307968;19;130387;-41
2022/06/09 04:58:26;;;;;;;25.37;2.20;;;;;;;24.00;51.35;98731.75;7312583;19;129132;-42
2022/06/09 05:00:52;;;;;;;15.73;1.48;;;;;;;24.05;50.91;98739.09;7310969;19;128882;-42
2022/06/09 05:03:17;;;;;;;24.00;2.17;;;;;;;24.10;51.76;98737.59;7312749;19;130119;-42
2022/06/09 05:05:45;;;;;;;48.40;4.23;;;;;;;24.13;51.86;98736.44;7310278;19;129724;-41
2022/06/09 05:08:12;;;;;;;26.75;2.28;;;;;;;24.15;51.73;98737.88;7312503;19;129139;-39
2022/06/09 05:10:39;;;;;;;30.05;2.63;;;;;;;24.18;52.36;98739.34;7312576;19;129151;-42
2022/06/09 05:13:06;;;;;;;29.42;2.58;;;;;;;24.19;51.77;98736.53;7308777;19;130171;-41
2022/06/09 05:15:33;;;;;;;27.50;2.25;;;;;;;24.21;52.50;98742.41;7313573;19;130688;-37
2022/06/09 05:17:58;;;;;;;131.65;11.13;;;;;;;24.25;51.61;98745.50;7298860;19;129710;-42
2022/06/09 05:20:24;;;;;;;169.00;14.17;;;;;;;24.25;52.27;98751.59;7295594;19;129332;-42
2022/06/09 05:22:50;;;;;;;92.40;7.40;;;;;;;24.27;52.72;98746.97;7296119;19;130213;-41
2022/06/09 05:25:17;;;;;;;32.20;2.58;;;;;;;24.27;52.00;98746.97;7306460;19;129640;-41
2022/06/09 05:27:44;;;;;;;;;;;;;;;24.34;54.60;98765.47;7310908;19;130127;-40
2022/06/09 05:30:17;;;;;;;90.72;7.13;;;;;;;23.82;49.41;98756.63;7309147;19;129441;-41
2022/06/09 05:32:43;;;;;;;38.28;2.97;;;;;;;23.75;49.14;98767.00;7307695;19;130194;-42
2022/06/09 05:35:10;;;;;;;21.20;1.92;;;;;;;23.78;49.19;98763.25;7313021;19;129182;-42
2022/06/09 05:45:49;;;;;;;19.42;1.70;;;;;;;24.13;51.33;98778.47;7312899;19;129729;-41
2022/06/09 05:48:14;;;;;;;52.57;4.23;;;;;;;24.17;52.49;98780.56;7311277;19;129167;-42
2022/06/09 05:50:40;;;;;;;28.02;2.35;;;;;;;24.13;51.74;98773.22;7311940;19;129096;-40
2022/06/09 05:53:06;;;;;;;24.27;2.10;;;;;;;24.21;51.81;98784.44;7309948;19;129891;-42
2022/06/09 05:55:32;;;;;;;29.83;2.40;;;;;;;24.24;52.44;98791.16;7312576;19;129220;-43
2022/06/09 05:57:57;;;;;;;45.67;3.60;;;;;;;24.14;52.59;98780.91;7311105;19;129092;-40
2022/06/09 06:00:23;;;;;;;29.10;2.53;;;;;;;24.22;52.11;98788.72;7309849;19;129145;-40
2022/06/09 06:02:48;;;;;;;12.85;1.23;;;;;;;24.15;52.47;98781.69;7309073;19;130106;-40
2022/06/09 06:08:08;;;;;;;25.17;2.05;;;;;;;24.24;52.99;98794.63;7308718;19;130418;-41
2022/06/09 06:10:34;;;;;;;25.47;2.20;;;;;;;24.02;50.69;98798.06;7309992;19;129059;-40
2022/06/09 06:12:59;;;;;;;27.23;2.37;;;;;;;23.74;49.97;98803.94;7309281;19;129176;-39
2022/06/09 06:15:25;;;;;;;24.43;2.27;;;;;;;23.63;49.25;98797.28;7312713;19;130185;-39
2022/06/09 06:17:54;;;;;;;20.48;1.67;;;;;;;23.71;48.95;98810.34;7312085;19;128954;-40
2022/06/09 06:20:19;;;;;;;16.23;1.48;;;;;;;23.95;50.44;98812.84;7310797;19;129020;-39
2022/06/09 06:22:45;;;;;;;55.40;4.30;;;;;;;24.02;51.56;98805.94;7305352;19;129572;-40
2022/06/09 06:25:10;;;;;;;26.50;2.30;;;;;;;24.10;51.70;98811.13;7312172;19;129885;-40
2022/06/09 06:27:36;;;;;;;91.60;7.23;;;;;;;24.12;51.99;98814.41;7305212;19;129072;-40
2022/06/09 06:30:02;;;;;;;67.80;5.03;;;;;;;24.16;52.28;98823.53;7300575;19;129466;-41
2022/06/09 06:32:27;;;;;;;38.53;3.03;;;;;;;24.19;51.99;98825.03;7311192;19;130949;-41
2022/06/09 06:34:52;;;;;;;28.83;2.43;;;;;;;24.20;51.57;98827.47;7314625;19;130360;-39
2022/06/09 06:37:18;;;;;;;23.27;1.80;;;;;;;24.23;52.72;98829.75;7319409;19;129170;-40
2022/06/09 06:39:43;;;;;;;23.83;2.13;;;;;;;24.23;52.69;98836.78;7315544;19;129487;-42
2022/06/09 06:42:09;;;;;;;29.15;2.65;;;;;;;24.26;51.94;98825.97;7315140;19;130138;-40
2022/06/09 06:44:34;;;;;;;24.73;2.10;;;;;;;24.20;51.97;98819.59;7318522;19;129099;-40
2022/06/09 06:46:59;;;;;;;7.28;0.77;;;;;;;24.25;51.77;98834.81;7318823;19;129646;-39
2022/06/09 06:49:25;;;;;;;30.23;2.35;;;;;;;24.27;51.75;98833.66;7315732;19;129146;-40
2022/06/09 06:51:50;;;;;;;37.30;3.03;;;;;;;24.14;51.21;98843.94;7316943;19;129383;-39
2022/06/09 06:54:15;;;;;;;25.37;2.40;;;;;;;23.74;50.13;98849.38;7318792;19;129076;-41
2022/06/09 06:56:41;;;;;;;29.17;2.47;;;;;;;23.72;49.40;98853.97;7316906;19;130880;-39
2022/06/09 06:59:06;;;;;;;23.38;1.92;;;;;;;23.74;48.84;98857.25;7318094;19;128922;-40
2022/06/09 07:01:32;;;;;;;35.42;2.63;;;;;;;23.97;50.17;98852.88;7313415;19;130185;-39
2022/06/09 07:03:57;;;;;;;8.52;0.70;;;;;;;23.97;51.43;98836.28;7316566;19;130358;-40
2022/06/09 07:06:23;;;;;;;25.38;2.05;;;;;;;24.01;50.80;98835.81;7317532;19;129564;-39
2022/06/09 07:08:48;;;;;;;4.80;0.60;;;;;;;24.14;52.33;98862.31;7317143;19;129413;-40
2022/06/09 07:11:14;;;;;;;28.30;2.33;;;;;;;24.18;51.30;98863.59;7316438;19;129238;-40
2022/06/09 07:13:40;;;;;;;24.17;1.97;;;;;;;24.19;52.69;98852.13;7317581;19;129729;-39
2022/06/09 07:16:07;;;;;;;26.45;2.13;;;;;;;24.19;51.55;98857.38;7316093;19;129444;-40
2022/06/09 07:18:34;;;;;;;25.40;2.03;;;;;;;24.21;51.58;98865.06;7316734;19;129747;-39
2022/06/09 07:21:00;;;;;;;23.98;1.95;;;;;;;24.21;52.48;98860.63;7315563;19;130108;-39
2022/06/09 07:23:26;;;;;;;28.27;2.20;;;;;;;24.25;51.97;98867.16;7312753;19;130483;-40
2022/06/09 07:25:52;;;;;;;49.70;4.03;;;;;;;24.24;52.28;98868.16;7314801;19;129108;-39
2022/06/09 07:28:18;;;;;;;46.55;3.63;;;;;;;24.26;52.69;98878.50;7315729;19;128809;-39
2022/06/09 07:30:44;;;;;;;29.43;2.37;;;;;;;24.16;52.69;98855.06;7313479;19;130610;-40
2022/06/09 07:33:10;;;;;;;43.17;3.23;;;;;;;24.09;51.78;98882.22;7312491;19;130335;-40
2022/06/09 07:35:37;;;;;;;34.10;2.60;;;;;;;23.77;50.17;98883.16;7314416;19;129309;-40
2022/06/09 07:38:05;;;;;;;10.02;1.15;;;;;;;23.74;49.19;98888.75;7317611;19;129303;-39
2022/06/09 07:40:36;;;;;;;47.15;3.55;;;;;;;23.75;49.11;98887.75;7314700;19;130091;-40
2022/06/09 07:43:03;;;;;;;20.50;1.52;;;;;;;23.97;50.71;98889.63;7313963;19;129849;-39
2022/06/09 07:45:29;;;;;;;27.63;2.08;;;;;;;24.03;52.16;98894.22;7315861;19;129279;-40
2022/06/09 07:47:54;;;;;;;23.47;1.80;;;;;;;24.08;51.23;98889.25;7315812;19;129382;-39
2022/06/09 07:50:20;;;;;;;21.80;1.85;;;;;;;24.14;51.68;98893.00;7316487;19;130098;-41
2022/06/09 07:52:46;;;;;;;22.83;1.77;;;;;;;24.16;51.90;98902.34;7314397;19;130333;-41
2022/06/09 07:55:14;;;;;;;23.50;2.08;;;;;;;24.13;52.55;98891.38;7315776;19;128967;-40
2022/06/09 07:57:39;;;;;;;27.13;2.15;;;;;;;24.19;52.19;98902.03;7315909;19;129129;-39
2022/06/09 08:00:07;;;;;;;24.83;2.17;;;;;;;24.20;52.69;98908.91;7313850;19;130415;-39
2022/06/09 08:02:32;;;;;;;26.30;2.05;;;;;;;24.20;52.54;98906.28;7314765;19;130238;-40
2022/06/09 08:04:58;;;;;;;20.17;1.80;;;;;;;24.21;51.84;98907.91;7315572;19;129775;-40
2022/06/09 08:07:23;;;;;;;23.73;1.95;;;;;;;24.21;52.63;98915.78;7316152;19;129176;-39
2022/06/09 08:09:49;;;;;;;42.88;3.10;;;;;;;24.24;52.31;98914.63;7315246;19;129093;-40
2022/06/09 08:12:14;;;;;;;22.63;1.83;;;;;;;24.26;52.68;98915.28;7313272;19;130426;-41
2022/06/09 08:14:39;;;;;;;27.60;2.13;;;;;;;24.00;51.76;98905.06;7315947;19;128840;-39
2022/06/09 08:17:05;;;;;;;27.43;2.27;;;;;;;23.76;50.28;98922.69;7315769;19;129343;-40
2022/06/09 08:19:31;;;;;;;25.17;2.08;;;;;;;23.74;49.31;98930.75;7313849;19;130102;-41
2022/06/09 08:21:56;;;;;;;5.60;0.67;;;;;;;23.76;49.03;98927.94;7315228;19;130405;-41
2022/06/09 08:24:22;;;;;;;15.52;1.48;;;;;;;23.95;50.32;98933.59;7313383;19;129365;-39
2022/06/09 08:26:48;;;;;;;30.00;2.20;;;;;;;23.93;51.46;98917.19;7315688;19;128694;-39
2022/06/09 08:29:13;;;;;;;30.33;2.50;;;;;;;24.07;51.32;98934.09;7313654;19;129639;-39
2022/06/09 08:31:39;;;;;;;27.13;2.17;;;;;;;24.15;51.33;98940.13;7314310;19;130458;-40
2022/06/09 08:34:05;;;;;;;24.30;2.03;;;;;;;24.16;52.28;98939.13;7314812;19;130038;-40
2022/06/09 08:36:30;;;;;;;6.03;0.70;;;;;;;24.18;51.88;98949.47;7313399;19;129076;-39
2022/06/09 08:38:56;;;;;;;35.73;2.73;;;;;;;24.18;52.46;98942.41;7313979;19;130089;-42
2022/06/09 08:41:41;;;;;;;34.05;2.42;;;;;;;24.23;53.65;98957.63;7310911;19;130777;-40
2022/06/09 08:44:15;;;;;;;25.10;2.03;;;;;;;24.22;53.50;98954.22;7314846;19;129133;-39
2022/06/09 08:46:42;;;;;;;37.33;2.88;;;;;;;24.21;52.57;98955.19;7312912;19;129404;-41
2022/06/09 08:49:28;;;;;;;34.90;3.00;;;;;;;24.22;54.32;98958.63;7314034;19;132270;-40
2022/06/09 08:51:56;;;;;;;3.28;0.63;;;;;;;24.22;52.00;98962.09;7311042;19;130449;-40
2022/06/09 08:54:28;;;;;;;22.25;1.77;;;;;;;24.23;53.57;98966.34;7312307;19;129562;-40
2022/06/09 08:56:54;;;;;;;26.08;1.95;;;;;;;24.23;52.24;98968.13;7312970;19;129106;-39
2022/06/09 08:59:24;;;;;;;32.78;2.63;;;;;;;23.77;50.04;98964.53;7310168;19;129988;-41
2022/06/09 09:02:03;;;;;;;28.38;2.28;;;;;;;23.75;49.30;98973.56;7311457;19;130382;-40
2022/06/09 09:04:37;;;;;;;38.63;2.67;;;;;;;23.77;48.80;98976.81;7312291;19;130561;-40
2022/06/09 09:07:30;;;;;;;11.43;1.08;;;;;;;23.97;52.40;98976.28;7312395;19;128792;-40
2022/06/09 09:10:00;;;;;;;32.42;2.22;;;;;;;24.01;51.68;98988.13;7310151;19;130196;-41
2022/06/09 09:12:38;;;;;;;7.70;0.80;;;;;;;24.06;52.44;98988.44;7311454;19;130358;-39
2022/06/09 09:15:19;;;;;;;28.42;2.25;;;;;;;24.11;53.70;98986.09;7313343;19;129511;-39
2022/06/09 09:18:19;;;;;;;22.30;1.92;;;;;;;24.17;53.17;99000.34;7313091;19;129470;-39
2022/06/09 09:21:12;;;;;;;26.83;2.17;;;;;;;24.19;53.63;98998.38;7312521;19;130192;-40
2022/06/09 09:24:06;;;;;;;23.08;1.88;;;;;;;24.12;53.77;98985.13;7311391;19;130297;-39
2022/06/09 09:27:09;;;;;;;21.02;1.75;;;;;;;24.22;54.50;99004.13;7310400;19;130238;-39
2022/06/09 09:29:45;;;;;;;21.55;1.73;;;;;;;24.23;53.34;99005.75;7311614;19;128974;-39
2022/06/09 09:32:15;;;;;;;24.45;2.03;;;;;;;24.22;52.45;99003.28;7311950;19;131796;-41
2022/06/09 09:34:44;;;;;;;17.95;1.55;;;;;;;24.21;52.21;99007.72;7312952;19;129564;-40
2022/06/09 09:37:36;;;;;;;31.42;2.40;;;;;;;24.22;54.17;99004.13;7312445;19;128842;-40
2022/06/09 09:40:16;;;;;;;23.73;1.80;;;;;;;23.84;49.41;99014.53;7311787;19;128985;-40
2022/06/09 09:42:44;;;;;;;25.23;1.90;;;;;;;23.71;50.05;99009.81;7312034;19;130016;-40
2022/06/09 09:45:10;;;;;;;19.27;1.63;;;;;;;23.76;49.12;99011.94;7312726;19;129639;-40
2022/06/09 09:47:51;;;;;;;32.57;2.50;;;;;;;23.83;50.88;99008.47;7312892;19;129817;-39
2022/06/09 09:50:54;;;;;;;22.95;1.83;;;;;;;23.93;52.63;99003.84;7312389;19;128937;-40
2022/06/09 09:53:28;;;;;;;21.35;1.75;;;;;;;24.08;51.80;99017.94;7312492;19;129114;-39
2022/06/09 09:56:15;;;;;;;37.45;2.88;;;;;;;24.13;53.24;99020.09;7312410;19;130436;-41
2022/06/09 09:58:47;;;;;;;38.60;3.30;;;;;;;24.12;53.49;99016.63;7311993;19;129378;-40
2022/06/09 10:01:22;;;;;;;36.20;3.05;;;;;;;24.16;53.37;99023.16;7310805;19;129155;-40
2022/06/09 10:09:52;;;;;;;19.95;1.52;;;;;;;24.22;52.85;99033.00;7305553;19;129483;-39
2022/06/09 10:12:33;;;;;;;21.70;1.73;;;;;;;24.22;54.23;99030.38;7311124;19;129636;-40
2022/06/09 10:15:03;;;;;;;24.08;1.83;;;;;;;24.25;52.08;99031.84;7311071;19;130436;-41
2022/06/09 10:17:53;;;;;;;25.48;1.85;;;;;;;24.27;54.25;99037.75;7311278;19;129887;-40
2022/06/09 10:20:31;;;;;;;26.30;2.03;;;;;;;24.24;51.59;99038.91;7310335;19;129034;-40
2022/06/09 10:23:25;;;;;;;24.50;2.00;;;;;;;23.76;49.87;99048.69;7309704;19;128878;-41
2022/06/09 10:26:08;;;;;;;46.83;3.60;;;;;;;23.74;49.59;99048.84;7310764;19;130581;-39
2022/06/09 10:28:45;;;;;;;26.52;2.15;;;;;;;23.75;48.74;99052.31;7311722;19;130457;-40
2022/06/09 10:31:22;;;;;;;51.35;3.88;;;;;;;23.90;50.89;99055.91;7308351;19;129049;-42
2022/06/09 10:33:47;;;;;;;;;;;;;;;24.08;53.16;99059.97;7311893;19;130286;-40
2022/06/09 10:36:50;;;;;;;26.93;2.03;;;;;;;24.07;52.96;99058.34;7311177;19;129992;-39
2022/06/09 10:39:26;;;;;;;21.67;2.00;;;;;;;24.10;52.70;99058.00;7309018;19;129257;-39
2022/06/09 10:42:28;;;;;;;27.98;2.33;;;;;;;24.16;53.79;99064.41;7309527;19;129375;-40
2022/06/09 10:45:09;;;;;;;27.30;2.33;;;;;;;24.18;53.45;99065.06;7310017;19;129384;-40
2022/06/09 10:56:45;;;;;;;45.38;3.35;;;;;;;24.21;53.37;99072.59;7306751;19;129384;-41
2022/06/09 10:59:20;;;;;;;29.33;2.45;;;;;;;24.24;53.56;99070.44;7308209;19;131914;-41
2022/06/09 11:01:46;;;;;;;27.83;2.38;;;;;;;24.22;53.19;99076.84;7308615;19;130984;-39
2022/06/09 11:04:16;;;;;;;76.53;5.22;;;;;;;24.22;52.62;99072.41;7306592;19;129287;-40
2022/06/09 11:07:10;;;;;;;47.38;3.45;;;;;;;23.72;49.46;99074.44;7307516;19;129350;-40
2022/06/09 11:10:00;;;;;;;32.13;2.50;;;;;;;23.73;49.62;99081.34;7309467;19;129209;-39
2022/06/09 11:12:34;;;;;;;21.75;1.63;;;;;;;23.73;48.98;99081.34;7307430;19;130388;-40
2022/06/09 11:15:25;;;;;;;22.50;1.67;;;;;;;23.97;53.08;99086.56;7310197;19;129011;-40
2022/06/09 11:17:53;;;;;;;20.52;1.63;;;;;;;24.04;51.54;99090.19;7310960;19;129494;-39
2022/06/09 11:20:29;;;;;;;23.95;1.85;;;;;;;24.00;52.33;99074.91;7316655;19;129470;-39
2022/06/09 11:23:08;;;;;;;23.58;1.88;;;;;;;24.12;52.65;99090.16;7314640;19;130324;-39
2022/06/09 11:25:53;;;;;;;40.38;3.25;;;;;;;24.06;53.08;99075.09;7316444;19;128970;-40
2022/06/09 11:28:46;;;;;;;21.98;2.00;;;;;;;24.08;54.09;99067.84;7316207;19;129031;-39
2022/06/09 11:31:20;;;;;;;27.10;2.17;;;;;;;24.19;52.90;99088.53;7316907;19;129514;-40
2022/06/09 11:34:20;;;;;;;36.08;2.90;;;;;;;24.22;54.27;99089.97;7314859;19;130386;-40
2022/06/09 11:36:54;;;;;;;29.17;2.33;;;;;;;24.21;52.38;99085.72;7315936;19;130066;-40
2022/06/09 11:39:27;;;;;;;30.08;2.50;;;;;;;24.22;53.75;99085.56;7315622;19;129014;-42
2022/06/09 11:42:07;;;;;;;10.27;0.90;;;;;;;24.25;53.96;99087.84;7315116;19;130981;-39
2022/06/09 11:44:40;;;;;;;44.00;3.45;;;;;;;24.22;53.05;99088.19;7312563;19;131150;-40
2022/06/09 11:47:13;;;;;;;43.25;3.40;;;;;;;24.21;53.76;99094.41;7313009;19;130635;-39
2022/06/09 11:49:46;;;;;;;39.50;3.15;;;;;;;23.77;49.94;99081.81;7311297;19;129933;-40
2022/06/09 11:52:20;;;;;;;30.70;2.47;;;;;;;23.73;49.44;99081.34;7310545;19;130512;-40
2022/06/09 11:54:49;;;;;;;52.65;4.05;;;;;;;23.73;49.23;99083.97;7312325;19;130346;-40
2022/06/09 11:57:36;;;;;;;31.08;2.30;;;;;;;23.92;51.19;99090.66;7314337;19;129785;-40